Time;durP1;ratioP1;P1;durP2;ratioP2;P2;SDS_P1;SDS_P2;PMS_P1;PMS_P2;Temp;Humidity;BMP_temperature;BMP_pressure;BME280_temperature;BME280_humidity;BME280_pressure;Samples;Min_cycle;Max_cycle;Signal;HPM_P1;HPM_P2
2024/03/04 00:00:50;;;;;;;4.75;1.85;;;13.20;83.50;;;;;;5056689;28;20037;-76
2024/03/04 00:03:16;;;;;;;5.93;1.77;;;13.10;83.80;;;;;;5056579;28;20044;-75
2024/03/04 00:05:42;;;;;;;8.10;2.40;;;13.10;84.40;;;;;;5054554;28;20452;-75
2024/03/04 00:08:08;;;;;;;5.13;1.63;;;13.10;84.70;;;;;;5054923;28;20045;-77
2024/03/04 00:10:34;;;;;;;7.18;1.90;;;13.00;85.00;;;;;;5055158;28;20151;-76
2024/03/04 00:12:59;;;;;;;6.30;1.27;;;12.80;84.80;;;;;;5055475;28;20037;-76
2024/03/04 00:15:25;;;;;;;6.93;1.25;;;12.70;85.10;;;;;;5054505;28;20433;-75
2024/03/04 00:17:51;;;;;;;3.88;1.10;;;12.50;85.10;;;;;;5054865;28;20033;-75
2024/03/04 00:20:20;;;;;;;7.15;1.35;;;12.40;85.40;;;;;;5054616;28;20025;-74
2024/03/04 00:22:47;;;;;;;4.82;1.00;;;12.30;86.00;;;;;;5055026;28;20110;-75
2024/03/04 00:25:16;;;;;;;6.78;1.50;;;12.30;86.40;;;;;;5054996;28;20048;-75
2024/03/04 00:27:49;;;;;;;4.93;1.05;;;12.30;86.60;;;;;;5054752;28;20045;-77
2024/03/04 00:30:15;;;;;;;4.07;1.13;;;12.20;86.60;;;;;;5036888;28;20432;-75
2024/03/04 00:32:41;;;;;;;4.55;0.90;;;12.20;87.00;;;;;;5054369;28;20041;-75
2024/03/04 00:35:09;;;;;;;5.15;1.42;;;12.20;86.70;;;;;;5054540;28;20065;-78
2024/03/04 00:37:35;;;;;;;5.82;1.33;;;12.10;86.90;;;;;;5053329;28;20048;-75
2024/03/04 00:40:05;;;;;;;3.75;1.02;;;12.10;87.50;;;;;;5054444;28;20488;-77
2024/03/04 00:42:32;;;;;;;5.50;1.13;;;12.10;87.60;;;;;;5053120;28;20041;-76
2024/03/04 00:44:58;;;;;;;4.93;1.20;;;12.00;87.30;;;;;;5036776;28;20103;-76
2024/03/04 00:47:24;;;;;;;5.05;1.00;;;11.90;87.90;;;;;;5036137;28;20564;-75
2024/03/04 00:49:50;;;;;;;2.45;0.75;;;11.90;88.10;;;;;;5054087;28;20104;-75
2024/03/04 00:52:17;;;;;;;4.80;1.38;;;11.90;88.00;;;;;;5054370;28;20037;-76
2024/03/04 00:54:43;;;;;;;4.60;1.33;;;12.10;88.20;;;;;;5054484;28;20033;-76
2024/03/04 00:57:09;;;;;;;5.65;1.20;;;12.10;88.00;;;;;;5054112;28;20381;-75
2024/03/04 00:59:37;;;;;;;4.97;1.48;;;12.20;88.10;;;;;;5052780;28;20021;-75
2024/03/04 01:02:05;;;;;;;7.28;1.55;;;12.20;88.20;;;;;;5052971;28;20052;-77
2024/03/04 01:04:31;;;;;;;6.30;1.25;;;12.20;88.50;;;;;;5052761;28;20029;-75
2024/03/04 01:06:57;;;;;;;4.85;1.25;;;12.20;88.70;;;;;;5054038;28;20163;-77
2024/03/04 01:09:23;;;;;;;5.78;1.50;;;12.20;88.90;;;;;;5050147;28;20124;-75
2024/03/04 01:11:49;;;;;;;6.43;1.30;;;12.20;89.10;;;;;;5053622;28;20388;-74
2024/03/04 01:14:14;;;;;;;4.70;1.30;;;12.20;89.00;;;;;;5035532;28;20056;-74
2024/03/04 01:16:43;;;;;;;4.25;1.17;;;12.10;89.80;;;;;;5053595;28;20025;-75
2024/03/04 01:19:09;;;;;;;4.22;1.10;;;12.10;89.90;;;;;;5037519;28;20108;-75
2024/03/04 01:21:35;;;;;;;4.57;1.17;;;12.10;89.90;;;;;;5057934;28;20029;-76
2024/03/04 01:24:01;;;;;;;5.68;1.50;;;12.00;90.00;;;;;;5038566;28;20087;-76
2024/03/04 01:26:27;;;;;;;3.53;0.95;;;11.90;90.10;;;;;;5054297;28;20512;-75
2024/03/04 01:28:52;;;;;;;6.35;1.42;;;11.90;90.10;;;;;;5053772;28;20045;-75
2024/03/04 01:31:21;;;;;;;6.13;1.10;;;11.90;90.40;;;;;;5053776;28;20075;-76
2024/03/04 01:33:50;;;;;;;3.53;1.00;;;11.80;90.30;;;;;;5053385;28;20116;-74
2024/03/04 01:36:16;;;;;;;4.68;1.10;;;11.80;90.40;;;;;;5035413;28;20029;-76
2024/03/04 01:38:42;;;;;;;4.35;1.27;;;11.70;90.40;;;;;;5053156;28;20036;-75
2024/03/04 01:41:08;;;;;;;5.13;1.05;;;11.70;90.40;;;;;;5053479;28;20036;-75
2024/03/04 01:43:34;;;;;;;4.63;1.08;;;11.70;90.30;;;;;;5035390;28;20098;-75
2024/03/04 01:46:00;;;;;;;4.40;1.00;;;11.70;90.40;;;;;;5053238;28;20033;-75
2024/03/04 01:48:26;;;;;;;4.03;1.30;;;11.80;90.40;;;;;;5052718;28;20049;-75
2024/03/04 01:50:54;;;;;;;3.72;0.90;;;11.80;90.30;;;;;;5052877;28;20116;-75
2024/03/04 01:53:22;;;;;;;1.60;0.80;;;11.80;90.50;;;;;;5053167;28;20611;-76
2024/03/04 01:56:00;;;;;;;3.70;0.88;;;11.80;90.20;;;;;;5052975;28;20044;-76
2024/03/04 01:58:26;;;;;;;2.75;0.90;;;11.80;90.30;;;;;;5035264;28;20036;-74
2024/03/04 02:00:54;;;;;;;3.50;1.10;;;11.80;90.30;;;;;;5053188;28;20045;-74
2024/03/04 02:03:22;;;;;;;3.33;1.00;;;11.80;90.40;;;;;;5053052;28;20055;-75
2024/03/04 02:05:48;;;;;;;4.40;1.13;;;11.70;90.50;;;;;;5053005;28;20039;-74
2024/03/04 02:08:19;;;;;;;3.25;1.00;;;11.70;90.60;;;;;;5052741;28;20045;-76
2024/03/04 02:10:46;;;;;;;3.22;1.00;;;11.70;90.70;;;;;;5052753;28;20025;-75
2024/03/04 02:13:12;;;;;;;5.00;1.05;;;11.60;90.60;;;;;;5052674;28;20025;-75
2024/03/04 02:15:38;;;;;;;4.43;1.30;;;11.60;90.70;;;;;;5052506;28;20435;-76
2024/03/04 02:18:07;;;;;;;2.72;1.00;;;11.50;90.80;;;;;;5052508;28;20072;-74
2024/03/04 02:20:41;;;;;;;5.00;1.13;;;11.50;91.00;;;;;;5052485;28;20556;-75
2024/03/04 02:23:09;;;;;;;3.35;1.20;;;11.40;91.00;;;;;;5052413;28;20106;-75
2024/03/04 02:25:38;;;;;;;2.70;0.80;;;11.30;91.10;;;;;;5052386;28;20354;-74
2024/03/04 02:28:04;;;;;;;2.58;0.80;;;11.30;91.20;;;;;;5051922;28;20045;-76
2024/03/04 02:30:31;;;;;;;3.92;1.10;;;11.20;91.20;;;;;;5052167;28;20106;-77
2024/03/04 02:32:58;;;;;;;2.92;0.95;;;11.10;91.40;;;;;;5052310;28;20041;-76
2024/03/04 02:35:29;;;;;;;1.65;0.70;;;11.20;91.50;;;;;;5052277;28;20053;-74
2024/03/04 02:37:55;;;;;;;2.47;0.80;;;11.20;91.40;;;;;;5052112;28;20044;-74
2024/03/04 02:40:21;;;;;;;2.30;0.65;;;11.30;91.40;;;;;;5034312;28;20121;-75
2024/03/04 02:42:50;;;;;;;3.40;0.70;;;11.30;91.30;;;;;;5052259;28;20107;-75
2024/03/04 02:45:16;;;;;;;3.72;0.80;;;11.30;91.30;;;;;;5052207;28;20120;-74
2024/03/04 02:47:42;;;;;;;5.88;1.20;;;11.40;91.40;;;;;;5051921;28;20021;-76
2024/03/04 02:50:08;;;;;;;3.70;1.00;;;11.40;91.40;;;;;;5052076;28;20040;-75
2024/03/04 02:52:33;;;;;;;3.13;0.75;;;11.40;91.50;;;;;;5051781;28;20029;-75
2024/03/04 02:54:59;;;;;;;6.43;1.00;;;11.40;91.40;;;;;;5052232;28;20400;-74
2024/03/04 02:57:25;;;;;;;3.58;0.93;;;11.40;91.80;;;;;;5051890;28;20028;-75
2024/03/04 02:59:51;;;;;;;6.90;1.10;;;11.40;91.70;;;;;;5051803;28;20036;-75
2024/03/04 03:02:17;;;;;;;2.60;0.75;;;11.40;91.70;;;;;;5034096;28;20037;-75
2024/03/04 03:04:43;;;;;;;5.05;1.10;;;11.40;91.70;;;;;;5051776;28;20109;-74
2024/03/04 03:07:09;;;;;;;2.38;0.80;;;11.40;91.70;;;;;;5051856;28;20029;-76
2024/03/04 03:09:35;;;;;;;2.15;0.90;;;11.40;91.80;;;;;;5051672;28;20076;-76
2024/03/04 03:12:01;;;;;;;2.00;0.80;;;11.40;91.70;;;;;;5051952;28;20048;-74
2024/03/04 03:14:27;;;;;;;2.78;0.73;;;11.40;91.80;;;;;;5051642;28;20491;-74
2024/03/04 03:16:53;;;;;;;4.55;1.23;;;11.40;91.70;;;;;;5052018;28;20033;-76
2024/03/04 03:19:26;;;;;;;3.63;0.93;;;11.40;91.80;;;;;;5051836;28;20116;-75
2024/03/04 03:21:52;;;;;;;1.65;0.60;;;11.40;91.80;;;;;;5052176;28;20087;-74
2024/03/04 03:24:19;;;;;;;3.63;0.85;;;11.40;91.70;;;;;;5033785;28;20025;-74
2024/03/04 03:26:46;;;;;;;3.70;0.95;;;11.50;91.90;;;;;;5033914;28;20484;-76
2024/03/04 03:29:14;;;;;;;2.97;1.00;;;11.50;91.70;;;;;;5051758;28;20064;-77
2024/03/04 03:31:40;;;;;;;3.70;1.00;;;11.50;91.70;;;;;;5051802;28;20132;-76
2024/03/04 03:34:06;;;;;;;1.65;0.77;;;11.50;91.50;;;;;;5051677;28;20075;-75
2024/03/04 03:36:32;;;;;;;2.65;1.05;;;11.50;91.40;;;;;;5051445;28;20473;-75
2024/03/04 03:38:58;;;;;;;2.88;1.10;;;11.60;91.70;;;;;;5052511;28;20045;-74
2024/03/04 03:41:23;;;;;;;3.30;1.10;;;11.50;91.70;;;;;;5055570;28;20103;-74
2024/03/04 03:43:49;;;;;;;3.33;1.10;;;11.50;91.60;;;;;;5055341;28;20036;-74
2024/03/04 03:46:15;;;;;;;4.93;0.90;;;11.50;91.70;;;;;;5055339;28;20025;-75
2024/03/04 03:48:44;;;;;;;2.72;0.90;;;11.50;91.70;;;;;;5070324;28;20137;-76
2024/03/04 03:51:10;;;;;;;1.95;0.82;;;11.50;91.60;;;;;;5055270;28;20575;-75
2024/03/04 03:53:36;;;;;;;4.05;1.02;;;11.40;91.70;;;;;;5037205;28;20029;-73
2024/03/04 03:56:05;;;;;;;4.43;0.82;;;11.20;91.70;;;;;;5055120;28;20480;-74
2024/03/04 03:58:31;;;;;;;2.95;0.98;;;11.20;91.80;;;;;;5037308;28;20048;-75
2024/03/04 04:00:57;;;;;;;3.53;0.90;;;11.10;91.80;;;;;;5054957;28;20033;-75
2024/03/04 04:03:23;;;;;;;3.47;1.08;;;11.10;91.90;;;;;;5055011;28;20099;-74
2024/03/04 04:05:49;;;;;;;1.67;0.70;;;11.10;91.90;;;;;;5054804;28;20108;-74
2024/03/04 04:08:14;;;;;;;2.33;0.80;;;11.10;91.80;;;;;;5054591;28;20136;-75
2024/03/04 04:10:40;;;;;;;2.67;0.88;;;11.10;91.80;;;;;;5054830;28;20040;-73
2024/03/04 04:13:06;;;;;;;2.83;0.90;;;11.10;91.80;;;;;;5054852;28;20033;-74
2024/03/04 04:15:32;;;;;;;2.72;0.90;;;11.20;92.00;;;;;;5036846;28;20095;-74
2024/03/04 04:17:58;;;;;;;2.78;0.80;;;11.20;91.90;;;;;;5055576;28;20044;-75
2024/03/04 04:20:24;;;;;;;2.35;0.80;;;11.20;91.70;;;;;;5037555;28;20575;-75
2024/03/04 04:22:50;;;;;;;3.38;0.82;;;11.30;91.80;;;;;;5036744;28;20033;-75
2024/03/04 04:25:16;;;;;;;1.55;0.70;;;11.30;91.80;;;;;;5054405;28;20040;-74
2024/03/04 04:27:42;;;;;;;1.33;0.65;;;11.30;91.90;;;;;;5036356;28;20036;-75
2024/03/04 04:30:09;;;;;;;3.55;1.00;;;11.30;91.90;;;;;;5036711;28;20033;-75
2024/03/04 04:32:35;;;;;;;2.70;0.77;;;11.40;91.80;;;;;;5054357;28;20112;-74
2024/03/04 04:35:02;;;;;;;4.85;1.10;;;11.40;91.90;;;;;;5054318;28;20434;-74
2024/03/04 04:37:29;;;;;;;1.70;0.90;;;11.40;92.00;;;;;;5054366;28;20505;-75
2024/03/04 04:39:55;;;;;;;2.90;1.17;;;11.40;92.00;;;;;;5054211;28;20025;-75
2024/03/04 04:42:22;;;;;;;2.13;1.00;;;11.40;91.90;;;;;;5054164;28;20033;-74
2024/03/04 04:44:48;;;;;;;3.63;1.05;;;11.40;91.80;;;;;;5053838;28;20045;-74
2024/03/04 04:47:14;;;;;;;2.90;1.05;;;11.30;91.80;;;;;;5054086;28;20033;-74
2024/03/04 04:49:40;;;;;;;3.92;0.90;;;11.30;91.90;;;;;;5053502;28;20045;-74
2024/03/04 04:52:06;;;;;;;1.80;0.75;;;11.20;91.70;;;;;;5056338;28;20075;-76
2024/03/04 04:54:31;;;;;;;2.28;0.70;;;11.10;91.40;;;;;;5057738;28;20064;-76
2024/03/04 04:56:57;;;;;;;1.90;0.80;;;11.00;91.50;;;;;;5054768;28;20520;-76
2024/03/04 04:59:23;;;;;;;2.28;0.88;;;11.00;91.30;;;;;;5035906;28;20037;-77
2024/03/04 05:01:48;;;;;;;3.40;0.93;;;11.00;91.40;;;;;;5054053;28;20107;-74
2024/03/04 05:04:14;;;;;;;2.28;0.70;;;10.90;91.50;;;;;;5053940;28;20063;-75
2024/03/04 05:06:40;;;;;;;2.05;1.00;;;10.90;91.40;;;;;;5054000;28;20029;-74
2024/03/04 05:09:06;;;;;;;3.50;0.60;;;10.90;91.50;;;;;;5053843;28;20120;-75
2024/03/04 05:11:35;;;;;;;1.73;0.50;;;10.90;91.20;;;;;;5053864;28;20029;-76
2024/03/04 05:14:00;;;;;;;5.38;0.93;;;10.80;91.00;;;;;;5054048;28;20384;-76
2024/03/04 05:16:26;;;;;;;2.55;0.93;;;10.70;90.80;;;;;;5053629;28;20033;-75
2024/03/04 05:18:52;;;;;;;1.70;0.60;;;10.70;90.80;;;;;;5053708;28;20041;-75
2024/03/04 05:21:17;;;;;;;1.15;0.68;;;10.60;90.90;;;;;;5053943;28;20607;-74
2024/03/04 05:23:43;;;;;;;3.10;0.98;;;10.60;90.50;;;;;;5053477;28;20037;-76
2024/03/04 05:26:09;;;;;;;1.20;0.68;;;10.50;90.30;;;;;;5053845;28;20034;-75
2024/03/04 05:28:35;;;;;;;1.88;0.75;;;10.50;90.50;;;;;;5053409;28;20396;-75
2024/03/04 05:31:01;;;;;;;1.15;0.60;;;10.50;90.50;;;;;;5053274;28;20049;-76
2024/03/04 05:33:26;;;;;;;3.28;1.40;;;10.50;90.50;;;;;;5035571;28;20060;-75
2024/03/04 05:35:52;;;;;;;2.42;1.00;;;10.60;90.50;;;;;;5053627;28;20139;-75
2024/03/04 05:38:18;;;;;;;2.60;0.90;;;10.60;90.40;;;;;;5053338;28;20231;-75
2024/03/04 05:40:44;;;;;;;1.77;0.60;;;10.50;90.10;;;;;;5035239;28;20036;-75
2024/03/04 05:43:10;;;;;;;1.95;0.57;;;10.50;90.30;;;;;;5053333;28;20132;-75
2024/03/04 05:45:35;;;;;;;1.33;0.60;;;10.50;90.20;;;;;;5035509;28;20492;-75
2024/03/04 05:48:01;;;;;;;1.55;0.82;;;10.40;90.20;;;;;;5035329;28;20037;-75
2024/03/04 05:50:27;;;;;;;2.60;0.90;;;10.40;90.10;;;;;;5053513;28;20040;-76
2024/03/04 05:52:53;;;;;;;1.08;0.50;;;10.40;90.20;;;;;;5052855;28;20029;-76
2024/03/04 05:55:19;;;;;;;3.65;1.05;;;10.30;90.40;;;;;;5053072;28;20119;-75
2024/03/04 05:57:46;;;;;;;1.13;0.70;;;10.30;90.30;;;;;;5053008;28;20089;-75
2024/03/04 06:00:14;;;;;;;1.65;0.60;;;10.40;90.40;;;;;;5053302;28;20122;-75
2024/03/04 06:02:40;;;;;;;0.60;0.60;;;10.40;90.30;;;;;;5051989;28;20468;-76
2024/03/04 06:05:07;;;;;;;3.50;0.70;;;10.40;90.30;;;;;;5052695;28;20057;-75
2024/03/04 06:07:33;;;;;;;2.42;0.82;;;10.30;90.10;;;;;;5034571;28;20044;-74
2024/03/04 06:09:59;;;;;;;1.65;0.85;;;10.20;90.30;;;;;;5052817;28;20036;-76
2024/03/04 06:12:24;;;;;;;2.88;0.60;;;10.20;90.30;;;;;;5052625;28;20428;-76
2024/03/04 06:14:50;;;;;;;1.23;0.60;;;10.20;90.40;;;;;;5052718;28;20049;-75
2024/03/04 06:17:16;;;;;;;1.80;0.63;;;10.20;90.30;;;;;;5052445;28;20102;-76
2024/03/04 06:19:41;;;;;;;2.50;0.73;;;10.20;90.50;;;;;;5067953;28;20111;-75
2024/03/04 06:22:07;;;;;;;2.38;0.60;;;10.20;90.50;;;;;;5052530;28;20417;-76
2024/03/04 06:24:34;;;;;;;0.77;0.60;;;10.10;90.60;;;;;;5052426;28;20033;-75
2024/03/04 06:27:03;;;;;;;1.55;0.70;;;10.20;90.80;;;;;;5034525;28;20037;-76
2024/03/04 06:29:30;;;;;;;1.98;0.80;;;10.10;90.60;;;;;;5052584;28;20044;-75
2024/03/04 06:31:57;;;;;;;1.30;0.80;;;10.10;90.50;;;;;;5053263;28;20053;-77
2024/03/04 06:34:23;;;;;;;1.77;0.80;;;10.10;90.50;;;;;;5035862;28;20495;-76
2024/03/04 06:36:48;;;;;;;1.10;0.68;;;10.10;90.60;;;;;;5052656;28;20086;-74
2024/03/04 06:39:16;;;;;;;1.77;0.60;;;10.00;90.50;;;;;;5052172;28;20112;-76
2024/03/04 06:41:43;;;;;;;1.33;0.60;;;10.00;90.50;;;;;;5033976;28;20381;-75
2024/03/04 06:44:09;;;;;;;2.58;0.65;;;10.00;90.50;;;;;;5034164;28;20503;-77
2024/03/04 06:46:34;;;;;;;1.10;0.70;;;10.00;90.40;;;;;;5052387;28;20037;-76
2024/03/04 06:49:00;;;;;;;1.20;0.65;;;10.00;90.50;;;;;;5035683;28;20397;-76
2024/03/04 06:51:27;;;;;;;1.38;1.08;;;10.00;90.40;;;;;;5052528;28;20029;-77
2024/03/04 06:53:53;;;;;;;1.52;0.85;;;10.00;90.30;;;;;;5052107;28;20036;-76
2024/03/04 06:56:21;;;;;;;1.50;0.73;;;10.10;90.40;;;;;;5051876;28;20056;-76
2024/03/04 06:58:46;;;;;;;1.73;0.77;;;10.10;90.20;;;;;;5051913;28;20444;-75
2024/03/04 07:01:13;;;;;;;3.03;0.90;;;10.10;90.20;;;;;;5052192;28;20486;-75
2024/03/04 07:03:43;;;;;;;0.93;0.82;;;10.10;90.00;;;;;;5052159;28;20067;-76
2024/03/04 07:06:13;;;;;;;1.60;0.85;;;10.20;90.10;;;;;;5052014;28;20480;-76
2024/03/04 07:08:41;;;;;;;1.77;0.70;;;10.20;90.00;;;;;;5052126;28;20512;-77
2024/03/04 07:11:08;;;;;;;1.65;0.90;;;10.20;90.00;;;;;;5035679;28;20442;-76
2024/03/04 07:13:34;;;;;;;2.90;1.38;;;10.30;90.10;;;;;;5054785;28;20108;-76
2024/03/04 07:16:00;;;;;;;1.83;0.80;;;10.40;89.80;;;;;;5056343;28;20079;-75
2024/03/04 07:18:31;;;;;;;1.67;0.80;;;10.50;89.30;;;;;;5056379;28;20029;-76
2024/03/04 07:20:57;;;;;;;1.50;0.90;;;10.50;89.60;;;;;;5056024;28;20033;-75
2024/03/04 07:23:23;;;;;;;2.45;1.10;;;10.60;89.10;;;;;;5054597;28;20128;-76
2024/03/04 07:25:48;;;;;;;4.30;1.10;;;10.60;88.90;;;;;;5055688;28;20537;-75
2024/03/04 07:28:14;;;;;;;8.13;1.25;;;10.70;89.10;;;;;;5037861;28;20045;-77
2024/03/04 07:30:40;;;;;;;4.97;1.23;;;10.70;88.80;;;;;;5055750;28;20119;-77
2024/03/04 07:33:11;;;;;;;17.48;2.30;;;10.80;88.70;;;;;;5056471;28;20101;-77
2024/03/04 07:35:37;;;;;;;7.63;1.85;;;10.80;88.80;;;;;;5071083;28;20045;-78
2024/03/04 07:38:04;;;;;;;24.10;2.40;;;10.90;88.80;;;;;;5037526;28;20037;-76
2024/03/04 07:40:30;;;;;;;10.88;1.80;;;10.90;88.40;;;;;;5055447;28;20037;-76
2024/03/04 07:42:56;;;;;;;12.63;2.25;;;10.90;88.10;;;;;;5055526;28;20033;-75
2024/03/04 07:45:22;;;;;;;14.38;2.83;;;10.90;88.10;;;;;;5055444;28;20550;-78
2024/03/04 07:47:47;;;;;;;13.23;2.35;;;11.00;88.60;;;;;;5055122;28;20029;-76
2024/03/04 07:50:13;;;;;;;4.47;1.50;;;11.20;88.80;;;;;;5037849;28;20029;-76
2024/03/04 07:52:39;;;;;;;4.65;1.58;;;11.30;88.50;;;;;;5055327;28;20035;-75
2024/03/04 07:55:07;;;;;;;5.80;1.67;;;11.40;88.20;;;;;;5054960;28;20485;-76
2024/03/04 07:57:33;;;;;;;4.47;1.90;;;11.50;88.20;;;;;;5054941;28;20119;-76
2024/03/04 07:59:58;;;;;;;8.73;2.25;;;11.50;87.80;;;;;;5070115;28;20115;-76
2024/03/04 08:02:24;;;;;;;9.63;2.65;;;11.60;88.10;;;;;;5055276;28;20044;-76
2024/03/04 08:04:50;;;;;;;5.05;2.55;;;11.60;88.00;;;;;;5056019;28;20124;-74
2024/03/04 08:07:16;;;;;;;5.40;2.20;;;11.70;87.90;;;;;;5055863;28;20048;-76
2024/03/04 08:09:42;;;;;;;10.25;3.03;;;11.80;87.60;;;;;;5039845;28;20508;-75
2024/03/04 08:12:08;;;;;;;6.25;2.40;;;11.80;87.60;;;;;;5038487;28;20037;-77
2024/03/04 08:14:36;;;;;;;21.02;3.40;;;11.90;87.80;;;;;;5055053;28;20033;-77
2024/03/04 08:17:02;;;;;;;11.43;2.67;;;12.10;87.50;;;;;;5055443;28;20059;-76
2024/03/04 08:19:28;;;;;;;4.30;1.73;;;12.10;87.20;;;;;;5056564;28;20508;-78
2024/03/04 08:21:53;;;;;;;7.88;2.15;;;12.20;86.70;;;;;;5055254;28;20535;-76
2024/03/04 08:24:19;;;;;;;5.15;1.73;;;12.30;86.80;;;;;;5035965;28;20045;-76
2024/03/04 08:26:45;;;;;;;4.68;1.95;;;12.40;86.40;;;;;;5054576;28;20079;-77
2024/03/04 08:29:10;;;;;;;5.50;2.20;;;12.50;86.20;;;;;;5054096;28;20041;-77
2024/03/04 08:31:37;;;;;;;4.68;1.65;;;12.60;86.20;;;;;;5054228;28;20178;-78
2024/03/04 08:34:05;;;;;;;4.68;1.95;;;12.60;85.90;;;;;;5054652;28;20128;-77
2024/03/04 08:36:31;;;;;;;7.78;2.10;;;12.70;85.90;;;;;;5054385;28;20033;-75
2024/03/04 08:38:57;;;;;;;3.05;1.63;;;12.80;85.50;;;;;;5036223;28;20041;-75
2024/03/04 08:41:24;;;;;;;4.88;2.10;;;12.90;85.30;;;;;;5054846;28;20032;-77
2024/03/04 08:43:50;;;;;;;4.65;2.20;;;13.00;85.30;;;;;;5054378;28;20124;-76
2024/03/04 08:46:16;;;;;;;7.63;2.05;;;13.10;84.80;;;;;;5036268;28;20037;-77
2024/03/04 08:48:42;;;;;;;4.03;1.92;;;13.10;84.60;;;;;;5036545;28;20522;-76
2024/03/04 08:51:08;;;;;;;4.85;1.85;;;13.20;84.20;;;;;;5054345;28;20124;-76
2024/03/04 08:53:34;;;;;;;4.55;2.00;;;13.40;84.00;;;;;;5053834;28;20035;-77
2024/03/04 08:56:00;;;;;;;4.32;2.00;;;13.50;83.70;;;;;;5053897;28;20033;-76
2024/03/04 08:58:26;;;;;;;4.82;2.13;;;13.50;83.20;;;;;;5054764;28;20356;-76
2024/03/04 09:00:51;;;;;;;4.07;1.90;;;13.70;82.80;;;;;;5053854;28;20029;-77
2024/03/04 09:03:17;;;;;;;3.53;1.80;;;13.60;82.10;;;;;;5054463;28;20108;-78
2024/03/04 09:05:44;;;;;;;4.82;2.00;;;13.60;81.80;;;;;;5054880;28;20095;-76
2024/03/04 09:08:11;;;;;;;3.78;1.98;;;13.60;82.10;;;;;;5054028;28;20169;-77
2024/03/04 09:10:38;;;;;;;5.40;2.00;;;13.80;81.70;;;;;;5035923;28;20150;-77
2024/03/04 09:13:04;;;;;;;4.60;2.22;;;13.80;81.00;;;;;;5035966;28;20029;-74
2024/03/04 09:15:29;;;;;;;7.53;2.22;;;13.80;81.40;;;;;;5054078;28;20484;-77
2024/03/04 09:17:55;;;;;;;6.75;2.33;;;13.90;81.20;;;;;;5053917;28;20037;-77
2024/03/04 09:20:21;;;;;;;6.60;2.13;;;13.90;80.30;;;;;;5053902;28;20029;-77
2024/03/04 09:22:47;;;;;;;7.32;2.40;;;13.90;80.20;;;;;;5036023;28;20061;-75
2024/03/04 09:25:13;;;;;;;4.07;1.90;;;13.90;80.00;;;;;;5053623;28;20432;-76
2024/03/04 09:27:42;;;;;;;4.15;1.95;;;13.90;80.00;;;;;;5053833;28;20029;-74
2024/03/04 09:30:09;;;;;;;5.10;2.45;;;14.00;79.90;;;;;;5053497;28;20392;-76
2024/03/04 09:32:35;;;;;;;5.53;1.88;;;14.10;79.30;;;;;;5053105;28;20041;-78
2024/03/04 09:35:01;;;;;;;3.58;1.80;;;14.20;78.90;;;;;;5034900;28;20037;-76
2024/03/04 09:37:27;;;;;;;5.70;1.75;;;14.20;78.70;;;;;;5052948;28;20128;-76
2024/03/04 09:39:53;;;;;;;7.63;2.38;;;14.30;78.50;;;;;;5053479;28;20135;-76
2024/03/04 09:42:19;;;;;;;4.47;2.20;;;14.30;78.20;;;;;;5053169;28;20033;-76
2024/03/04 09:44:46;;;;;;;6.72;2.05;;;14.50;78.10;;;;;;5053001;28;20051;-75
2024/03/04 09:47:15;;;;;;;4.75;1.50;;;14.60;77.70;;;;;;5053159;28;20060;-77
2024/03/04 09:49:41;;;;;;;5.28;2.40;;;14.70;77.00;;;;;;5053249;28;20127;-77
2024/03/04 09:52:08;;;;;;;4.18;1.70;;;14.80;76.80;;;;;;5052867;28;20025;-77
2024/03/04 09:54:37;;;;;;;5.82;2.60;;;14.90;75.90;;;;;;5052987;28;20071;-77
2024/03/04 09:57:03;;;;;;;10.40;2.47;;;15.00;75.30;;;;;;5052919;28;20056;-78
2024/03/04 09:59:31;;;;;;;7.88;2.17;;;15.00;74.70;;;;;;5052953;28;20045;-76
2024/03/04 10:01:59;;;;;;;7.97;2.80;;;15.00;75.20;;;;;;5053127;28;20051;-76
2024/03/04 10:04:25;;;;;;;6.32;2.72;;;15.10;74.30;;;;;;5053150;28;20032;-76
2024/03/04 10:06:52;;;;;;;8.18;2.00;;;15.20;74.10;;;;;;5052672;28;20037;-76
2024/03/04 10:09:18;;;;;;;8.55;2.22;;;15.20;73.60;;;;;;5052367;28;20070;-77
2024/03/04 10:11:45;;;;;;;6.10;1.92;;;15.20;73.50;;;;;;5052471;28;20029;-76
2024/03/04 10:14:11;;;;;;;8.38;3.20;;;15.30;73.50;;;;;;5034800;28;20028;-75
2024/03/04 10:16:37;;;;;;;6.18;2.72;;;15.50;73.20;;;;;;5052442;28;20033;-78
2024/03/04 10:19:05;;;;;;;3.33;1.20;;;15.60;72.70;;;;;;5052867;28;20029;-76
2024/03/04 10:21:32;;;;;;;3.97;1.35;;;15.70;71.80;;;;;;5052689;28;20116;-77
2024/03/04 10:24:08;;;;;;;7.22;1.30;;;15.70;71.00;;;;;;5052513;28;20096;-78
2024/03/04 10:26:44;;;;;;;7.00;1.15;;;15.80;69.70;;;;;;5052448;28;20048;-78
2024/03/04 10:29:12;;;;;;;3.15;1.00;;;15.70;69.70;;;;;;5052342;28;20084;-77
2024/03/04 10:31:58;;;;;;;4.75;1.30;;;15.70;69.40;;;;;;5052763;28;20063;-77
2024/03/04 10:34:24;;;;;;;4.90;1.08;;;15.90;68.90;;;;;;5053317;28;20432;-77
2024/03/04 10:36:56;;;;;;;7.68;1.88;;;15.90;68.10;;;;;;5054082;28;20144;-76
2024/03/04 10:39:23;;;;;;;4.45;1.20;;;15.90;67.80;;;;;;5053198;28;20048;-77
2024/03/04 10:41:50;;;;;;;5.25;1.33;;;15.90;67.90;;;;;;5053217;28;20033;-77
2024/03/04 10:44:26;;;;;;;6.05;1.70;;;15.90;67.40;;;;;;5052692;28;20063;-77
2024/03/04 10:46:56;;;;;;;2.22;1.10;;;16.00;66.80;;;;;;5052746;28;20045;-77
2024/03/04 10:49:24;;;;;;;4.43;0.82;;;16.10;66.00;;;;;;5034012;28;20044;-78
2024/03/04 10:51:51;;;;;;;3.38;0.98;;;16.00;64.60;;;;;;5052378;28;20036;-77
2024/03/04 10:54:22;;;;;;;4.82;1.13;;;16.10;64.50;;;;;;5052655;28;20496;-76
2024/03/04 10:56:58;;;;;;;9.60;2.20;;;16.00;64.40;;;;;;5052674;28;20029;-76
2024/03/04 10:59:33;;;;;;;7.65;1.40;;;16.10;65.20;;;;;;5052421;28;20029;-77
2024/03/04 11:02:00;;;;;;;6.25;1.70;;;16.20;65.70;;;;;;5052091;28;20052;-77
2024/03/04 11:04:28;;;;;;;5.63;1.20;;;16.20;66.00;;;;;;5034255;28;20431;-77
2024/03/04 11:06:55;;;;;;;5.13;1.40;;;16.30;66.10;;;;;;5051855;28;20097;-76
2024/03/04 11:09:21;;;;;;;4.90;1.50;;;16.30;65.90;;;;;;5052101;28;20045;-76
2024/03/04 11:11:55;;;;;;;5.20;1.20;;;16.50;66.30;;;;;;5052045;28;20025;-75
2024/03/04 11:14:36;;;;;;;5.15;1.40;;;16.60;65.70;;;;;;5052366;28;20033;-76
2024/03/04 11:17:32;;;;;;;5.40;1.15;;;16.80;65.70;;;;;;5051798;28;20366;-76
2024/03/04 11:19:59;;;;;;;7.72;1.40;;;16.90;65.40;;;;;;5051618;28;20091;-75
2024/03/04 11:22:25;;;;;;;5.30;2.00;;;17.00;65.60;;;;;;5034030;28;20120;-77
2024/03/04 11:24:52;;;;;;;2.45;1.00;;;17.00;63.30;;;;;;5051515;28;20105;-77
2024/03/04 11:27:19;;;;;;;6.28;2.08;;;17.00;62.70;;;;;;5051785;28;20090;-76
2024/03/04 11:29:47;;;;;;;3.78;1.10;;;16.90;63.10;;;;;;5051971;28;20033;-77
2024/03/04 11:32:13;;;;;;;2.63;0.90;;;16.90;63.00;;;;;;5058559;28;20059;-77
2024/03/04 11:34:55;;;;;;;3.97;1.42;;;16.80;62.70;;;;;;5055550;28;20053;-75
2024/03/04 11:37:27;;;;;;;4.32;1.08;;;16.70;63.30;;;;;;5051551;28;20037;-77
2024/03/04 11:39:53;;;;;;;7.25;1.17;;;16.60;62.80;;;;;;5051474;28;20381;-76
2024/03/04 11:42:35;;;;;;;4.93;1.10;;;16.60;63.40;;;;;;5051702;28;20044;-78
2024/03/04 11:45:06;;;;;;;5.53;1.50;;;16.70;63.50;;;;;;5051492;28;20068;-77
2024/03/04 11:47:32;;;;;;;2.70;1.10;;;16.70;63.80;;;;;;5051812;28;20137;-77
2024/03/04 11:49:59;;;;;;;4.75;1.23;;;16.60;63.90;;;;;;5051348;28;20526;-76
2024/03/04 11:52:27;;;;;;;4.65;1.33;;;16.40;64.00;;;;;;5051544;28;20519;-78
2024/03/04 11:54:56;;;;;;;5.10;1.15;;;16.30;63.90;;;;;;5051436;28;20029;-77
2024/03/04 11:57:24;;;;;;;4.85;1.00;;;16.20;63.50;;;;;;5051484;28;20028;-78
2024/03/04 11:59:57;;;;;;;4.03;1.00;;;16.10;63.70;;;;;;5051444;28;20029;-76
2024/03/04 12:02:23;;;;;;;2.97;1.23;;;16.00;63.30;;;;;;5055552;28;20040;-78
2024/03/04 12:04:48;;;;;;;5.05;1.10;;;15.90;63.10;;;;;;5055583;28;20037;-76
2024/03/04 12:07:14;;;;;;;5.65;1.20;;;16.00;63.80;;;;;;5055150;28;20025;-79
2024/03/04 12:09:41;;;;;;;4.25;1.05;;;16.00;63.50;;;;;;5055048;28;20045;-77
2024/03/04 12:12:11;;;;;;;3.83;1.10;;;16.00;62.90;;;;;;5036641;28;20029;-76
2024/03/04 12:14:36;;;;;;;6.00;1.63;;;15.90;62.60;;;;;;5055232;28;20033;-78
2024/03/04 12:17:03;;;;;;;6.45;1.23;;;15.90;62.70;;;;;;5054881;28;20029;-76
2024/03/04 12:19:29;;;;;;;4.05;1.55;;;16.00;62.90;;;;;;5054847;28;20080;-77
2024/03/04 12:21:55;;;;;;;5.28;1.08;;;16.00;62.50;;;;;;5054796;28;20029;-77
2024/03/04 12:24:23;;;;;;;5.60;1.20;;;16.10;62.20;;;;;;5054903;28;20044;-77
2024/03/04 12:26:54;;;;;;;3.65;1.10;;;16.20;62.30;;;;;;5054350;28;20365;-78
2024/03/04 12:29:22;;;;;;;3.53;1.00;;;16.20;62.10;;;;;;5054107;28;20040;-77
2024/03/04 12:31:50;;;;;;;4.32;1.20;;;16.10;62.10;;;;;;5054602;28;20043;-75
2024/03/04 12:34:18;;;;;;;5.93;1.45;;;16.10;61.90;;;;;;5055298;28;20549;-77
2024/03/04 12:36:43;;;;;;;5.05;1.17;;;16.20;61.90;;;;;;5054978;28;20043;-77
2024/03/04 12:39:12;;;;;;;3.95;0.88;;;16.20;61.40;;;;;;5055296;28;20124;-76
2024/03/04 12:41:40;;;;;;;7.18;1.48;;;16.10;60.70;;;;;;5055006;28;20393;-77
2024/03/04 12:44:06;;;;;;;2.92;1.38;;;16.00;60.60;;;;;;5054364;28;20125;-76